Grantville, Georgia
Current Conditions -  °F | °C
As of 5:35 PM on Tuesday 21 Oct 2014 (Local Time) from KCCO Reporting Station
Scattered Clouds Scattered Clouds  
Wind Chill: 75°   Ceiling: Unl
Heat Index: 75°   Visibility: 10mi
Dew Point: 56°   Wind: 8mph
Humidity: 52%   Direction: 310°NW
Pressure: 29.97"   Gusts: NA
Location:  33.23°N, 84.84°W
Report Text: KCCO 212135Z AUTO 31007KT 10SM SCT050 24/13 A2997 RMK AO2 T02380133
Loading
Personal Weather Stations






























Interactive Weather Map
Tropical Storm Tracking
New forecast layout! Learn more

10-Day Weather Forecast

Advertisements
Track Severe Weather on mobile